McGregor, IA

6:22 PM CDT on October 22, 2014 (GMT -0500)
Prairie Du Chien Municipal | Change Station
CLOSE
Current Station
Airport
Location: Prairie Du Chien,
Elevation: 659 ft
Nearby Weather Stations

Elev 659 ft 43.02 °N, 91.12 °W | Updated 7 minutes ago

Clear
Clear
54 °F
Feels Like 54 °F
N
6
Wind Variable Wind from ESE

Today
High -- | Low -- °F
--% Chance of Precip.
Yesterday
High -- | Low -- °F
Precip. -- in
7:26 AM 6:10 PM
Waning Crescent, 1% visible
Pressure 30.18 in
Visibility 10.0 miles
Clouds Clear
Dew Point 37 °F
Humidity 53%
Rainfall 0.00 in
Snow Depth Not available.
UV 0 out of 12
Pollen 1.10 out of 12
Air Quality Not available.
Flu Activity Sporadic
METAR KPDC 222315Z AUTO 11005KT 10SM CLR 12/03 A3018 RMK AO2 T01220028

More Conditions Fewer Conditions

Pressure 30.18 in
Visibility 10.0 miles
Clouds Clear
Dew Point 37 °F
Humidity 53%
Rainfall 0.00 in
Snow Depth Not available.
UV 0 out of 12
Pollen 1.10 out of 12
Air Quality Not available.
Flu Activity Sporadic
METAR KPDC 222315Z AUTO 11005KT 10SM CLR 12/03 A3018 RMK AO2 T01220028

More Conditions Fewer Conditions

10-Day Weather Forecast

Almanac

Astronomy

Oct. 22, 2014 Rise Set
Actual Time 7:26 AM CDT 6:10 PM CDT
Civil Twilight 6:57 AM CDT 6:39 PM CDT
Nautical Twilight 6:24 AM CDT 7:12 PM CDT
Astronomical Twilight 5:51 AM CDT 7:45 PM CDT
Moon 6:06 AM CDT 5:39 PM CDT
Length of Visible Light 11h 42m
Length of Day
10h 44m
Tomorrow will be 2m 45s shorter.
Waning Crescent, 1% of the Moon is Illuminated
Today
Waning Crescent
Oct 23
New
Oct 30
First Quarter
Nov 6
Full
Nov 14
Last Quarter

Today's Extremes

State Highs State Lows

Community

WunderPhotos

Upload Photos

1,764,078 photos uploaded!

WunderBlogs® & News

Nearby

Snow Depth

Station Depth Elevation
No new snow has been reported.

Earthquake Activity

City Distance Mag. Time & Date
No recent earthquake activity has been reported nearby.
Minimum magnitude displayed is 2.5.

Coastal Water Temperatures

Place Temperature
No Stations Reporting

Nearby Weather Stations